sensor_id;sensor_type;location;lat;lon;timestamp;pressure;altitude;pressure_sealevel;temperature;humidity
57038;BME280;59942;49.304;8.256;2022-12-07T00:01:21;100601.06;;;3.15;85.95
57038;BME280;59942;49.304;8.256;2022-12-07T00:03:50;100598.53;;;3.13;86.31
57038;BME280;59942;49.304;8.256;2022-12-07T00:06:18;100584.97;;;3.01;86.46
57038;BME280;59942;49.304;8.256;2022-12-07T00:08:45;100606.19;;;3.10;86.39
57038;BME280;59942;49.304;8.256;2022-12-07T00:11:15;100593.41;;;3.12;86.65
57038;BME280;59942;49.304;8.256;2022-12-07T00:13:43;100593.44;;;3.06;86.43
57038;BME280;59942;49.304;8.256;2022-12-07T00:16:24;100580.59;;;3.09;86.87
57038;BME280;59942;49.304;8.256;2022-12-07T00:18:52;100590.00;;;3.08;86.33
57038;BME280;59942;49.304;8.256;2022-12-07T00:21:22;100573.91;;;2.92;87.53
57038;BME280;59942;49.304;8.256;2022-12-07T00:23:50;100575.69;;;2.83;88.35
57038;BME280;59942;49.304;8.256;2022-12-07T00:26:22;100580.59;;;3.09;86.70
57038;BME280;59942;49.304;8.256;2022-12-07T00:28:52;100574.59;;;3.11;86.31
57038;BME280;59942;49.304;8.256;2022-12-07T00:31:22;100573.78;;;3.09;86.46
57038;BME280;59942;49.304;8.256;2022-12-07T00:33:49;100547.41;;;2.98;86.45
57038;BME280;59942;49.304;8.256;2022-12-07T00:36:18;100566.13;;;3.06;86.93
57038;BME280;59942;49.304;8.256;2022-12-07T00:38:53;100561.00;;;3.02;87.15
57038;BME280;59942;49.304;8.256;2022-12-07T00:41:22;100560.25;;;2.95;87.32
57038;BME280;59942;49.304;8.256;2022-12-07T00:43:50;100554.25;;;2.94;87.02
57038;BME280;59942;49.304;8.256;2022-12-07T00:46:18;100557.56;;;3.06;86.46
57038;BME280;59942;49.304;8.256;2022-12-07T00:48:47;100556.78;;;3.01;86.56
57038;BME280;59942;49.304;8.256;2022-12-07T00:51:16;100562.69;;;3.06;86.63
57038;BME280;59942;49.304;8.256;2022-12-07T00:53:44;100556.63;;;3.15;86.05
57038;BME280;59942;49.304;8.256;2022-12-07T00:58:40;100540.59;;;2.94;86.02
57038;BME280;59942;49.304;8.256;2022-12-07T01:01:09;100555.13;;;2.93;87.02
57038;BME280;59942;49.304;8.256;2022-12-07T01:03:37;100555.13;;;2.95;86.29
57038;BME280;59942;49.304;8.256;2022-12-07T01:06:04;100557.53;;;3.10;85.83
57038;BME280;59942;49.304;8.256;2022-12-07T01:08:33;100558.38;;;3.12;85.51
57038;BME280;59942;49.304;8.256;2022-12-07T01:11:05;100563.50;;;3.12;85.93
57038;BME280;59942;49.304;8.256;2022-12-07T01:13:34;100564.41;;;3.07;85.85
57038;BME280;59942;49.304;8.256;2022-12-07T01:16:03;100563.59;;;3.02;85.89
57038;BME280;59942;49.304;8.256;2022-12-07T01:18:32;100560.25;;;2.95;86.23
57038;BME280;59942;49.304;8.256;2022-12-07T01:21:05;100562.81;;;2.95;86.88
57038;BME280;59942;49.304;8.256;2022-12-07T01:23:33;100564.56;;;2.88;86.79
57038;BME280;59942;49.304;8.256;2022-12-07T01:26:04;100567.91;;;2.98;86.86
57038;BME280;59942;49.304;8.256;2022-12-07T01:28:32;100573.03;;;2.98;86.14
57038;BME280;59942;49.304;8.256;2022-12-07T01:33:35;100563.66;;;2.92;86.59
57038;BME280;59942;49.304;8.256;2022-12-07T01:36:16;100560.28;;;2.86;87.63
57038;BME280;59942;49.304;8.256;2022-12-07T01:38:43;100567.13;;;2.85;87.19
57038;BME280;59942;49.304;8.256;2022-12-07T01:41:11;100561.97;;;2.91;87.24
57038;BME280;59942;49.304;8.256;2022-12-07T01:46:38;100543.28;;;2.78;86.93
57038;BME280;59942;49.304;8.256;2022-12-07T01:49:09;100567.16;;;2.84;87.45
57038;BME280;59942;49.304;8.256;2022-12-07T01:51:38;100544.19;;;2.76;87.54
57038;BME280;59942;49.304;8.256;2022-12-07T01:54:07;100564.53;;;2.90;87.32
57038;BME280;59942;49.304;8.256;2022-12-07T01:56:35;100564.56;;;2.87;87.34
57038;BME280;59942;49.304;8.256;2022-12-07T01:59:03;100556.06;;;2.82;87.33
57038;BME280;59942;49.304;8.256;2022-12-07T02:01:30;100569.72;;;2.84;87.18
57038;BME280;59942;49.304;8.256;2022-12-07T02:03:58;100559.53;;;2.77;87.59
57038;BME280;59942;49.304;8.256;2022-12-07T02:06:25;100551.00;;;2.75;87.42
57038;BME280;59942;49.304;8.256;2022-12-07T02:08:53;100552.78;;;2.64;87.78
57038;BME280;59942;49.304;8.256;2022-12-07T02:11:20;100551.84;;;2.73;87.48
57038;BME280;59942;49.304;8.256;2022-12-07T02:13:48;100550.19;;;2.72;87.17
57038;BME280;59942;49.304;8.256;2022-12-07T02:16:44;100545.03;;;2.75;87.42
57038;BME280;59942;49.304;8.256;2022-12-07T02:25:24;100539.06;;;2.76;86.78
57038;BME280;59942;49.304;8.256;2022-12-07T02:28:05;100549.19;;;2.87;86.28
57038;BME280;59942;49.304;8.256;2022-12-07T02:30:35;100547.50;;;2.86;86.18
57038;BME280;59942;49.304;8.256;2022-12-07T02:33:27;100548.47;;;2.71;86.29
57038;BME280;59942;49.304;8.256;2022-12-07T02:36:16;100555.28;;;2.75;86.54
57038;BME280;59942;49.304;8.256;2022-12-07T02:39:11;100511.09;;;2.47;87.26
57038;BME280;59942;49.304;8.256;2022-12-07T02:41:47;100538.22;;;2.71;87.11
57038;BME280;59942;49.304;8.256;2022-12-07T02:44:21;100522.09;;;2.61;87.50
57038;BME280;59942;49.304;8.256;2022-12-07T02:47:03;100526.41;;;2.56;87.58
57038;BME280;59942;49.304;8.256;2022-12-07T02:49:31;100533.16;;;2.65;87.51
57038;BME280;59942;49.304;8.256;2022-12-07T02:51:58;100523.81;;;2.59;87.39
57038;BME280;59942;49.304;8.256;2022-12-07T02:54:25;100523.88;;;2.53;87.48
57038;BME280;59942;49.304;8.256;2022-12-07T02:57:16;100533.28;;;2.48;87.80
57038;BME280;59942;49.304;8.256;2022-12-07T03:08:03;100522.16;;;2.52;87.54
57038;BME280;59942;49.304;8.256;2022-12-07T03:13:32;100522.25;;;2.36;89.10
57038;BME280;59942;49.304;8.256;2022-12-07T03:16:29;100511.16;;;2.40;89.57
57038;BME280;59942;49.304;8.256;2022-12-07T03:19:03;100496.75;;;2.27;89.32
57038;BME280;59942;49.304;8.256;2022-12-07T03:21:38;100515.47;;;2.29;90.13
57038;BME280;59942;49.304;8.256;2022-12-07T03:24:16;100503.53;;;2.26;89.66
57038;BME280;59942;49.304;8.256;2022-12-07T03:26:51;100504.41;;;2.27;90.26
57038;BME280;59942;49.304;8.256;2022-12-07T03:29:24;100512.94;;;2.26;90.45
57038;BME280;59942;49.304;8.256;2022-12-07T03:32:00;100511.31;;;2.14;90.70
57038;BME280;59942;49.304;8.256;2022-12-07T03:34:54;100510.38;;;2.28;89.96
57038;BME280;59942;49.304;8.256;2022-12-07T03:37:32;100504.34;;;2.35;89.13
57038;BME280;59942;49.304;8.256;2022-12-07T03:40:08;100506.88;;;2.39;89.24
57038;BME280;59942;49.304;8.256;2022-12-07T03:42:38;100490.72;;;2.34;88.30
57038;BME280;59942;49.304;8.256;2022-12-07T03:45:05;100471.19;;;2.19;88.39
57038;BME280;59942;49.304;8.256;2022-12-07T03:53:18;100502.63;;;2.37;88.45
57038;BME280;59942;49.304;8.256;2022-12-07T03:55:48;100487.34;;;2.29;89.02
57038;BME280;59942;49.304;8.256;2022-12-07T03:58:18;100474.53;;;2.29;88.82
57038;BME280;59942;49.304;8.256;2022-12-07T04:00:46;100488.97;;;2.38;88.84
57038;BME280;59942;49.304;8.256;2022-12-07T04:03:13;100490.69;;;2.37;88.85
57038;BME280;59942;49.304;8.256;2022-12-07T04:05:40;100488.19;;;2.33;88.58
57038;BME280;59942;49.304;8.256;2022-12-07T04:08:07;100488.94;;;2.42;87.96
57038;BME280;59942;49.304;8.256;2022-12-07T04:10:34;100483.81;;;2.42;87.84
57038;BME280;59942;49.304;8.256;2022-12-07T04:13:01;100483.03;;;2.37;87.36
57038;BME280;59942;49.304;8.256;2022-12-07T04:15:28;100491.47;;;2.50;87.51
57038;BME280;59942;49.304;8.256;2022-12-07T04:17:54;100469.34;;;2.41;87.17
57038;BME280;59942;49.304;8.256;2022-12-07T04:20:21;100469.34;;;2.41;87.11
57038;BME280;59942;49.304;8.256;2022-12-07T04:22:48;100475.34;;;2.37;87.86
57038;BME280;59942;49.304;8.256;2022-12-07T04:25:15;100482.16;;;2.41;87.70
57038;BME280;59942;49.304;8.256;2022-12-07T04:27:42;100488.00;;;2.57;87.24
57038;BME280;59942;49.304;8.256;2022-12-07T04:30:09;100497.41;;;2.52;87.37
57038;BME280;59942;49.304;8.256;2022-12-07T04:32:36;100497.44;;;2.49;87.03
57038;BME280;59942;49.304;8.256;2022-12-07T04:35:04;100493.09;;;2.59;87.44
57038;BME280;59942;49.304;8.256;2022-12-07T04:37:31;100493.16;;;2.48;87.29
57038;BME280;59942;49.304;8.256;2022-12-07T04:39:57;100492.28;;;2.52;87.50
57038;BME280;59942;49.304;8.256;2022-12-07T04:42:25;100493.13;;;2.56;87.60
57038;BME280;59942;49.304;8.256;2022-12-07T04:44:51;100478.69;;;2.44;87.52
57038;BME280;59942;49.304;8.256;2022-12-07T04:47:18;100475.31;;;2.42;87.24
57038;BME280;59942;49.304;8.256;2022-12-07T04:49:45;100492.25;;;2.57;87.30
57038;BME280;59942;49.304;8.256;2022-12-07T04:52:12;100494.00;;;2.53;87.23
57038;BME280;59942;49.304;8.256;2022-12-07T04:54:38;100485.44;;;2.56;86.82
57038;BME280;59942;49.304;8.256;2022-12-07T04:57:05;100468.44;;;2.44;86.97
57038;BME280;59942;49.304;8.256;2022-12-07T04:59:32;100483.72;;;2.58;87.39
57038;BME280;59942;49.304;8.256;2022-12-07T05:01:59;100484.59;;;2.54;87.25
57038;BME280;59942;49.304;8.256;2022-12-07T05:04:26;100482.09;;;2.48;87.98
57038;BME280;59942;49.304;8.256;2022-12-07T05:06:52;100471.06;;;2.39;88.33
57038;BME280;59942;49.304;8.256;2022-12-07T05:09:19;100482.94;;;2.47;88.31
57038;BME280;59942;49.304;8.256;2022-12-07T05:11:46;100476.91;;;2.54;87.66
57038;BME280;59942;49.304;8.256;2022-12-07T05:14:16;100480.31;;;2.56;87.13
57038;BME280;59942;49.304;8.256;2022-12-07T05:16:44;100470.97;;;2.53;87.12
57038;BME280;59942;49.304;8.256;2022-12-07T05:19:11;100485.31;;;2.70;86.76
57038;BME280;59942;49.304;8.256;2022-12-07T05:21:39;100481.25;;;2.46;87.61
57038;BME280;59942;49.304;8.256;2022-12-07T05:24:07;100489.78;;;2.45;88.02
57038;BME280;59942;49.304;8.256;2022-12-07T05:26:34;100478.78;;;2.33;89.01
57038;BME280;59942;49.304;8.256;2022-12-07T05:29:01;100484.03;;;2.13;89.27
57038;BME280;59942;49.304;8.256;2022-12-07T05:31:28;100482.28;;;2.15;89.68
57038;BME280;59942;49.304;8.256;2022-12-07T05:33:55;100477.94;;;2.34;89.80
57038;BME280;59942;49.304;8.256;2022-12-07T05:36:22;100482.09;;;2.48;89.43
57038;BME280;59942;49.304;8.256;2022-12-07T05:38:49;100471.06;;;2.36;88.89
57038;BME280;59942;49.304;8.256;2022-12-07T05:41:18;100469.38;;;2.38;88.89
57038;BME280;59942;49.304;8.256;2022-12-07T05:44:05;100483.81;;;2.47;88.83
57038;BME280;59942;49.304;8.256;2022-12-07T05:46:32;100470.16;;;2.45;87.84
57038;BME280;59942;49.304;8.256;2022-12-07T05:48:59;100477.81;;;2.47;88.49
57038;BME280;59942;49.304;8.256;2022-12-07T05:51:25;100476.13;;;2.49;88.46
57038;BME280;59942;49.304;8.256;2022-12-07T05:53:52;100474.44;;;2.45;87.52
57038;BME280;59942;49.304;8.256;2022-12-07T05:56:19;100433.59;;;2.29;87.12
57038;BME280;59942;49.304;8.256;2022-12-07T05:58:46;100465.81;;;2.55;87.16
57038;BME280;59942;49.304;8.256;2022-12-07T06:01:31;100481.16;;;2.56;87.13
57038;BME280;59942;49.304;8.256;2022-12-07T06:11:20;100471.78;;;2.55;86.60
57038;BME280;59942;49.304;8.256;2022-12-07T06:14:05;100468.41;;;2.53;86.98
57038;BME280;59942;49.304;8.256;2022-12-07T06:16:31;100466.69;;;2.52;87.36
57038;BME280;59942;49.304;8.256;2022-12-07T06:18:58;100472.69;;;2.50;87.70
57038;BME280;59942;49.304;8.256;2022-12-07T06:21:25;100475.31;;;2.40;88.23
57038;BME280;59942;49.304;8.256;2022-12-07T06:23:53;100472.78;;;2.37;88.13
57038;BME280;59942;49.304;8.256;2022-12-07T06:26:20;100478.66;;;2.50;87.33
57038;BME280;59942;49.304;8.256;2022-12-07T06:28:47;100476.16;;;2.46;87.71
57038;BME280;59942;49.304;8.256;2022-12-07T06:31:14;100469.22;;;2.57;87.53
57038;BME280;59942;49.304;8.256;2022-12-07T06:33:41;100482.03;;;2.54;87.66
57038;BME280;59942;49.304;8.256;2022-12-07T06:36:08;100475.94;;;2.72;87.08
57038;BME280;59942;49.304;8.256;2022-12-07T06:38:35;100478.69;;;2.44;88.24
57038;BME280;59942;49.304;8.256;2022-12-07T06:41:02;100474.25;;;2.68;87.26
57038;BME280;59942;49.304;8.256;2022-12-07T06:43:29;100483.59;;;2.73;86.99
57038;BME280;59942;49.304;8.256;2022-12-07T06:45:56;100463.28;;;2.53;87.37
57038;BME280;59942;49.304;8.256;2022-12-07T06:48:23;100463.31;;;2.50;86.97
57038;BME280;59942;49.304;8.256;2022-12-07T06:50:50;100475.97;;;2.64;86.33
57038;BME280;59942;49.304;8.256;2022-12-07T06:53:21;100489.56;;;2.72;86.27
57038;BME280;59942;49.304;8.256;2022-12-07T06:55:48;100480.13;;;2.81;85.31
57038;BME280;59942;49.304;8.256;2022-12-07T06:58:16;100481.81;;;2.80;84.78
57038;BME280;59942;49.304;8.256;2022-12-07T07:00:43;100488.56;;;2.89;85.19
57038;BME280;59942;49.304;8.256;2022-12-07T07:03:10;100486.00;;;2.92;85.28
57038;BME280;59942;49.304;8.256;2022-12-07T07:05:37;100491.13;;;2.92;84.99
57038;BME280;59942;49.304;8.256;2022-12-07T07:08:04;100490.16;;;3.02;85.32
57038;BME280;59942;49.304;8.256;2022-12-07T07:10:47;100490.19;;;3.01;85.07
57038;BME280;59942;49.304;8.256;2022-12-07T07:13:14;100479.22;;;2.86;85.63
57038;BME280;59942;49.304;8.256;2022-12-07T07:15:41;100457.19;;;2.67;85.54
57038;BME280;59942;49.304;8.256;2022-12-07T07:18:08;100497.06;;;2.92;85.56
57038;BME280;59942;49.304;8.256;2022-12-07T07:20:35;100501.28;;;2.98;85.85
57038;BME280;59942;49.304;8.256;2022-12-07T07:23:01;100495.28;;;3.02;85.14
57038;BME280;59942;49.304;8.256;2022-12-07T07:25:29;100502.28;;;2.85;85.64
57038;BME280;59942;49.304;8.256;2022-12-07T07:27:55;100496.25;;;2.87;86.19
57038;BME280;59942;49.304;8.256;2022-12-07T07:30:22;100501.34;;;2.95;86.18
57038;BME280;59942;49.304;8.256;2022-12-07T07:32:49;100491.94;;;2.95;85.77
57038;BME280;59942;49.304;8.256;2022-12-07T07:35:16;100496.25;;;2.90;85.62
57038;BME280;59942;49.304;8.256;2022-12-07T07:37:43;100508.94;;;3.03;85.64
57038;BME280;59942;49.304;8.256;2022-12-07T07:40:10;100509.13;;;2.81;86.72
57038;BME280;59942;49.304;8.256;2022-12-07T07:42:37;100509.06;;;2.86;87.35
57038;BME280;59942;49.304;8.256;2022-12-07T07:45:04;100506.69;;;2.66;88.38
57038;BME280;59942;49.304;8.256;2022-12-07T07:47:31;100518.59;;;2.71;88.66
57038;BME280;59942;49.304;8.256;2022-12-07T07:49:57;100513.34;;;2.85;88.34
57038;BME280;59942;49.304;8.256;2022-12-07T07:52:25;100471.69;;;2.69;87.82
57038;BME280;59942;49.304;8.256;2022-12-07T07:54:51;100520.97;;;2.91;86.78
57038;BME280;59942;49.304;8.256;2022-12-07T07:57:18;100524.47;;;2.84;88.16
57038;BME280;59942;49.304;8.256;2022-12-07T07:59:45;100524.47;;;2.84;87.57
57038;BME280;59942;49.304;8.256;2022-12-07T08:02:14;100532.25;;;2.72;88.31
57038;BME280;59942;49.304;8.256;2022-12-07T08:04:41;100525.38;;;2.77;87.99
57038;BME280;59942;49.304;8.256;2022-12-07T08:07:08;100533.91;;;2.79;88.07
57038;BME280;59942;49.304;8.256;2022-12-07T08:09:35;100531.25;;;2.90;87.84
57038;BME280;59942;49.304;8.256;2022-12-07T08:12:02;100528.63;;;2.96;87.66
57038;BME280;59942;49.304;8.256;2022-12-07T08:14:29;100536.25;;;3.05;87.72
57038;BME280;59942;49.304;8.256;2022-12-07T08:16:55;100539.59;;;3.13;88.34
57038;BME280;59942;49.304;8.256;2022-12-07T08:19:22;100536.13;;;3.15;87.87
57038;BME280;59942;49.304;8.256;2022-12-07T08:21:49;100539.59;;;3.13;87.99
57038;BME280;59942;49.304;8.256;2022-12-07T08:24:16;100545.53;;;3.17;87.75
57038;BME280;59942;49.304;8.256;2022-12-07T08:26:43;100549.81;;;3.17;88.29
57038;BME280;59942;49.304;8.256;2022-12-07T08:29:10;100548.34;;;2.89;89.25
57038;BME280;59942;49.304;8.256;2022-12-07T08:31:36;100544.03;;;2.91;90.08
57038;BME280;59942;49.304;8.256;2022-12-07T08:34:04;100553.41;;;2.94;90.32
57038;BME280;59942;49.304;8.256;2022-12-07T08:36:31;100540.59;;;2.95;89.71
57038;BME280;59942;49.304;8.256;2022-12-07T08:38:57;100504.84;;;2.85;88.82
57038;BME280;59942;49.304;8.256;2022-12-07T08:41:44;100548.94;;;3.15;89.54
57038;BME280;59942;49.304;8.256;2022-12-07T08:44:10;100556.53;;;3.27;89.00
57038;BME280;59942;49.304;8.256;2022-12-07T08:47:02;100552.22;;;3.29;88.79
57038;BME280;59942;49.304;8.256;2022-12-07T08:49:33;100543.75;;;3.24;89.16
57038;BME280;59942;49.304;8.256;2022-12-07T08:52:04;100548.75;;;3.36;88.89
57038;BME280;59942;49.304;8.256;2022-12-07T08:54:33;100541.84;;;3.43;88.80
57038;BME280;59942;49.304;8.256;2022-12-07T08:57:03;100545.31;;;3.37;89.39
57038;BME280;59942;49.304;8.256;2022-12-07T08:59:30;100536.81;;;3.34;88.92
57038;BME280;59942;49.304;8.256;2022-12-07T09:01:57;100545.25;;;3.43;88.75
57038;BME280;59942;49.304;8.256;2022-12-07T09:04:24;100540.13;;;3.43;88.99
57038;BME280;59942;49.304;8.256;2022-12-07T09:06:50;100544.31;;;3.52;89.06
57038;BME280;59942;49.304;8.256;2022-12-07T09:09:17;100539.09;;;3.61;88.32
57038;BME280;59942;49.304;8.256;2022-12-07T09:11:44;100512.75;;;3.47;88.41
57038;BME280;59942;49.304;8.256;2022-12-07T09:14:12;100549.28;;;3.66;87.58
57038;BME280;59942;49.304;8.256;2022-12-07T09:16:39;100539.00;;;3.68;87.91
57038;BME280;59942;49.304;8.256;2022-12-07T09:19:07;100549.97;;;3.80;88.08
57038;BME280;59942;49.304;8.256;2022-12-07T09:21:34;100554.19;;;3.88;87.35
57038;BME280;59942;49.304;8.256;2022-12-07T09:24:01;100548.13;;;3.93;86.92
57038;BME280;59942;49.304;8.256;2022-12-07T09:26:28;100538.81;;;3.86;87.57
57038;BME280;59942;49.304;8.256;2022-12-07T09:28:54;100560.84;;;4.01;87.38
57038;BME280;59942;49.304;8.256;2022-12-07T09:31:21;100548.06;;;3.98;86.82
57038;BME280;59942;49.304;8.256;2022-12-07T09:34:00;100554.03;;;3.97;86.33
57038;BME280;59942;49.304;8.256;2022-12-07T09:36:28;100554.91;;;3.97;86.02
57038;BME280;59942;49.304;8.256;2022-12-07T09:38:55;100540.41;;;3.95;85.59
57038;BME280;59942;49.304;8.256;2022-12-07T09:41:23;100542.81;;;4.06;86.13
57038;BME280;59942;49.304;8.256;2022-12-07T09:43:53;100535.81;;;4.18;85.70
57038;BME280;59942;49.304;8.256;2022-12-07T09:46:23;100545.03;;;4.30;86.04
57038;BME280;59942;49.304;8.256;2022-12-07T09:48:50;100547.66;;;4.27;85.83
57038;BME280;59942;49.304;8.256;2022-12-07T09:51:20;100538.16;;;4.35;85.15
57038;BME280;59942;49.304;8.256;2022-12-07T09:53:52;100545.59;;;4.54;85.62
57038;BME280;59942;49.304;8.256;2022-12-07T09:56:21;100537.00;;;4.55;84.13
57038;BME280;59942;49.304;8.256;2022-12-07T09:58:50;100533.50;;;4.59;83.85
57038;BME280;59942;49.304;8.256;2022-12-07T10:01:20;100537.84;;;4.56;84.33
57038;BME280;59942;49.304;8.256;2022-12-07T10:03:53;100529.28;;;4.57;84.84
57038;BME280;59942;49.304;8.256;2022-12-07T10:06:23;100524.16;;;4.57;84.46
57038;BME280;59942;49.304;8.256;2022-12-07T10:08:50;100535.91;;;4.70;83.78
57038;BME280;59942;49.304;8.256;2022-12-07T10:11:16;100509.72;;;4.49;83.08
57038;BME280;59942;49.304;8.256;2022-12-07T10:13:48;100518.69;;;4.78;83.49
57038;BME280;59942;49.304;8.256;2022-12-07T10:18:54;100525.38;;;4.87;84.15
57038;BME280;59942;49.304;8.256;2022-12-07T10:21:26;100514.94;;;4.96;83.32
57038;BME280;59942;49.304;8.256;2022-12-07T10:24:04;100503.91;;;4.90;83.48
57038;BME280;59942;49.304;8.256;2022-12-07T10:29:20;100517.91;;;5.23;82.92
57038;BME280;59942;49.304;8.256;2022-12-07T10:31:57;100523.31;;;5.08;82.89
57038;BME280;59942;49.304;8.256;2022-12-07T10:34:30;100520.13;;;4.93;84.05
57038;BME280;59942;49.304;8.256;2022-12-07T10:37:21;100512.97;;;5.11;82.72
57038;BME280;59942;49.304;8.256;2022-12-07T10:39:53;100512.84;;;5.17;81.24
57038;BME280;59942;49.304;8.256;2022-12-07T10:42:29;100517.13;;;5.18;82.99
57038;BME280;59942;49.304;8.256;2022-12-07T11:04:36;100485.09;;;6.56;77.69
57038;BME280;59942;49.304;8.256;2022-12-07T11:15:22;100482.78;;;6.44;78.97
57038;BME280;59942;49.304;8.256;2022-12-07T11:23:46;100463.72;;;6.15;78.48
57038;BME280;59942;49.304;8.256;2022-12-07T11:31:36;100459.22;;;6.25;79.98
57038;BME280;59942;49.304;8.256;2022-12-07T11:34:19;100454.94;;;6.25;83.56
57038;BME280;59942;49.304;8.256;2022-12-07T11:36:56;100451.22;;;6.00;80.82
57038;BME280;59942;49.304;8.256;2022-12-07T11:39:54;100449.44;;;6.02;82.87
57038;BME280;59942;49.304;8.256;2022-12-07T11:42:29;100451.56;;;6.22;83.13
57038;BME280;59942;49.304;8.256;2022-12-07T11:45:13;100448.13;;;6.23;78.21
57038;BME280;59942;49.304;8.256;2022-12-07T11:47:50;100449.56;;;6.35;82.98
57038;BME280;59942;49.304;8.256;2022-12-07T11:53:00;100447.09;;;6.30;77.19
57038;BME280;59942;49.304;8.256;2022-12-07T12:03:45;100433.94;;;6.41;81.67
57038;BME280;59942;49.304;8.256;2022-12-07T12:06:19;100435.88;;;6.33;80.12
57038;BME280;59942;49.304;8.256;2022-12-07T12:08:58;100435.25;;;6.23;74.47
57038;BME280;59942;49.304;8.256;2022-12-07T12:20:51;100398.44;;;5.80;75.52
57038;BME280;59942;49.304;8.256;2022-12-07T12:23:27;100429.22;;;5.83;76.81
57038;BME280;59942;49.304;8.256;2022-12-07T12:26:02;100412.66;;;5.57;75.84
57038;BME280;59942;49.304;8.256;2022-12-07T12:28:39;100419.09;;;5.77;76.10
57038;BME280;59942;49.304;8.256;2022-12-07T12:33:53;100409.47;;;5.85;76.98
57038;BME280;59942;49.304;8.256;2022-12-07T12:41:59;100411.13;;;5.88;75.14
57038;BME280;59942;49.304;8.256;2022-12-07T12:47:00;100408.44;;;6.32;78.10
57038;BME280;59942;49.304;8.256;2022-12-07T12:52:00;100403.63;;;6.85;77.23
57038;BME280;59942;49.304;8.256;2022-12-07T12:54:35;100374.69;;;6.75;77.38
57038;BME280;59942;49.304;8.256;2022-12-07T12:57:16;100402.56;;;6.92;70.72
57038;BME280;59942;49.304;8.256;2022-12-07T13:02:27;100399.03;;;6.97;73.54
57038;BME280;59942;49.304;8.256;2022-12-07T13:18:41;100379.59;;;6.52;72.82
57038;BME280;59942;49.304;8.256;2022-12-07T13:28:50;100373.13;;;6.35;70.29
57038;BME280;59942;49.304;8.256;2022-12-07T13:33:56;100366.44;;;6.28;78.85
57038;BME280;59942;49.304;8.256;2022-12-07T13:36:25;100374.13;;;6.31;75.79
57038;BME280;59942;49.304;8.256;2022-12-07T13:38:57;100364.59;;;5.99;71.42
57038;BME280;59942;49.304;8.256;2022-12-07T13:41:28;100361.63;;;6.16;70.92
57038;BME280;59942;49.304;8.256;2022-12-07T13:44:08;100366.84;;;6.13;71.74
57038;BME280;59942;49.304;8.256;2022-12-07T13:49:31;100356.34;;;5.83;72.55
57038;BME280;59942;49.304;8.256;2022-12-07T13:52:17;100352.59;;;5.59;71.08
57038;BME280;59942;49.304;8.256;2022-12-07T13:54:54;100355.34;;;5.51;70.20
57038;BME280;59942;49.304;8.256;2022-12-07T13:57:24;100350.22;;;5.51;71.45
57038;BME280;59942;49.304;8.256;2022-12-07T13:59:52;100343.38;;;5.50;71.48
57038;BME280;59942;49.304;8.256;2022-12-07T14:02:26;100345.72;;;5.61;72.26
57038;BME280;59942;49.304;8.256;2022-12-07T14:07:58;100340.25;;;5.35;71.12
57038;BME280;59942;49.304;8.256;2022-12-07T14:10:31;100341.81;;;5.43;75.10
57038;BME280;59942;49.304;8.256;2022-12-07T14:13:00;100338.41;;;5.42;72.21
57038;BME280;59942;49.304;8.256;2022-12-07T14:15:33;100347.81;;;5.42;72.80
57038;BME280;59942;49.304;8.256;2022-12-07T14:18:02;100344.34;;;5.44;72.87
57038;BME280;59942;49.304;8.256;2022-12-07T14:23:00;100341.03;;;5.39;74.27
57038;BME280;59942;49.304;8.256;2022-12-07T14:25:46;100338.28;;;5.47;71.90
57038;BME280;59942;49.304;8.256;2022-12-07T14:28:31;100343.22;;;5.56;74.14
57038;BME280;59942;49.304;8.256;2022-12-07T14:30:59;100354.03;;;5.70;75.77
57038;BME280;59942;49.304;8.256;2022-12-07T14:33:27;100357.63;;;5.63;71.20
57038;BME280;59942;49.304;8.256;2022-12-07T14:35:55;100347.94;;;5.74;75.63
57038;BME280;59942;49.304;8.256;2022-12-07T14:38:25;100348.59;;;5.47;73.10
57038;BME280;59942;49.304;8.256;2022-12-07T14:40:53;100345.25;;;5.43;73.26
57038;BME280;59942;49.304;8.256;2022-12-07T14:43:20;100332.78;;;5.25;73.10
57038;BME280;59942;49.304;8.256;2022-12-07T14:45:47;100334.34;;;5.32;73.77
57038;BME280;59942;49.304;8.256;2022-12-07T14:48:15;100343.13;;;5.21;74.55
57038;BME280;59942;49.304;8.256;2022-12-07T14:51:02;100350.47;;;4.96;75.92
57038;BME280;59942;49.304;8.256;2022-12-07T14:53:51;100355.31;;;5.12;76.05
57038;BME280;59942;49.304;8.256;2022-12-07T14:56:23;100351.97;;;5.07;76.80
57038;BME280;59942;49.304;8.256;2022-12-07T14:58:51;100354.72;;;4.99;78.61
57038;BME280;59942;49.304;8.256;2022-12-07T15:01:17;100355.59;;;4.98;76.61
57038;BME280;59942;49.304;8.256;2022-12-07T15:03:44;100339.41;;;4.94;77.20
57038;BME280;59942;49.304;8.256;2022-12-07T15:06:15;100350.50;;;4.95;76.77
57038;BME280;59942;49.304;8.256;2022-12-07T15:08:42;100349.53;;;5.02;77.52
57038;BME280;59942;49.304;8.256;2022-12-07T15:11:15;100348.81;;;4.94;75.78
57038;BME280;59942;49.304;8.256;2022-12-07T15:13:42;100350.72;;;4.85;75.89
57038;BME280;59942;49.304;8.256;2022-12-07T15:16:27;100345.59;;;4.82;76.87
57038;BME280;59942;49.304;8.256;2022-12-07T15:19:24;100353.97;;;4.92;76.06
57038;BME280;59942;49.304;8.256;2022-12-07T15:21:56;100353.25;;;4.87;73.79
57038;BME280;59942;49.304;8.256;2022-12-07T15:24:23;100337.97;;;4.79;75.09
57038;BME280;59942;49.304;8.256;2022-12-07T15:26:50;100348.56;;;4.62;75.20
57038;BME280;59942;49.304;8.256;2022-12-07T15:29:18;100341.44;;;4.78;74.40
57038;BME280;59942;49.304;8.256;2022-12-07T15:31:51;100348.28;;;4.76;74.65
57038;BME280;59942;49.304;8.256;2022-12-07T15:34:24;100340.91;;;4.59;74.92
57038;BME280;59942;49.304;8.256;2022-12-07T15:36:52;100340.06;;;4.59;75.14
57038;BME280;59942;49.304;8.256;2022-12-07T15:39:18;100350.09;;;4.73;76.33
57038;BME280;59942;49.304;8.256;2022-12-07T15:41:45;100340.03;;;4.60;76.82
57038;BME280;59942;49.304;8.256;2022-12-07T15:44:13;100347.72;;;4.62;77.08
57038;BME280;59942;49.304;8.256;2022-12-07T15:46:59;100343.75;;;4.45;76.05
57038;BME280;59942;49.304;8.256;2022-12-07T15:49:26;100344.56;;;4.46;78.46